Time;durP1;ratioP1;P1;durP2;ratioP2;P2;SDS_P1;SDS_P2;PMS_P1;PMS_P2;Temp;Humidity;BMP_temperature;BMP_pressure;BME280_temperature;BME280_humidity;BME280_pressure;Samples;Min_cycle;Max_cycle;Signal;HPM_P1;HPM_P2
2023/06/13 00:01:01;;;;;;;2.85;2.50;;;23.10;59.40;;;;;;4997409;28;20374;-67
2023/06/13 00:03:29;;;;;;;3.45;2.83;;;23.00;59.50;;;;;;4995829;28;21067;-62
2023/06/13 00:05:55;;;;;;;2.55;2.35;;;23.00;59.40;;;;;;4992291;28;20057;-69
2023/06/13 00:08:21;;;;;;;2.75;2.50;;;23.00;59.40;;;;;;4991703;28;20070;-66
2023/06/13 00:10:51;;;;;;;2.67;2.30;;;23.00;60.00;;;;;;4994397;28;20696;-67
2023/06/13 00:13:18;;;;;;;2.55;2.22;;;23.00;59.40;;;;;;4993162;28;20096;-65
2023/06/13 00:15:49;;;;;;;3.08;2.30;;;23.00;59.50;;;;;;4995256;28;20104;-67
2023/06/13 00:18:16;;;;;;;2.70;2.50;;;23.00;59.40;;;;;;5000864;28;20084;-63
2023/06/13 00:20:41;;;;;;;3.25;2.70;;;23.00;59.40;;;;;;5001154;28;20543;-62
2023/06/13 00:23:08;;;;;;;3.33;2.60;;;23.00;59.40;;;;;;4998697;28;20116;-66
2023/06/13 00:25:34;;;;;;;3.45;2.42;;;23.00;59.40;;;;;;4997039;28;20513;-64
2023/06/13 00:28:00;;;;;;;2.75;2.42;;;23.00;59.40;;;;;;4994949;28;20044;-65
2023/06/13 00:30:26;;;;;;;2.70;2.50;;;23.00;59.40;;;;;;4993160;28;20026;-67
2023/06/13 00:32:54;;;;;;;2.60;2.33;;;23.00;59.40;;;;;;4996564;28;20597;-64
2023/06/13 00:35:20;;;;;;;4.00;2.85;;;23.00;59.40;;;;;;4992362;28;20038;-66
2023/06/13 00:37:47;;;;;;;2.75;2.50;;;23.00;59.40;;;;;;4992557;28;20030;-65
2023/06/13 00:40:12;;;;;;;3.30;2.88;;;23.00;59.40;;;;;;4989800;28;20027;-66
2023/06/13 00:42:38;;;;;;;3.13;2.72;;;23.00;59.50;;;;;;4993589;28;20093;-65
2023/06/13 00:45:18;;;;;;;2.50;2.30;;;23.00;59.50;;;;;;4994877;28;20038;-67
2023/06/13 00:47:45;;;;;;;2.50;2.30;;;23.00;59.40;;;;;;4997727;28;20030;-67
2023/06/13 00:50:12;;;;;;;2.78;2.40;;;23.00;59.40;;;;;;4998879;28;20065;-63
2023/06/13 00:52:39;;;;;;;2.95;2.65;;;23.00;59.50;;;;;;4997093;28;20046;-68
2023/06/13 00:55:05;;;;;;;3.17;2.88;;;23.00;59.40;;;;;;4996499;28;20030;-67
2023/06/13 00:57:33;;;;;;;3.72;2.78;;;23.00;59.40;;;;;;4992767;28;20049;-62
2023/06/13 01:00:00;;;;;;;3.10;2.40;;;22.90;59.40;;;;;;4991677;28;20063;-65
2023/06/13 01:02:27;;;;;;;3.08;2.78;;;22.90;59.30;;;;;;4996708;28;20031;-66
2023/06/13 01:04:53;;;;;;;2.65;2.45;;;22.90;59.30;;;;;;4986077;28;20062;-63
2023/06/13 01:07:19;;;;;;;2.97;2.58;;;22.90;59.80;;;;;;4993144;28;20114;-65
2023/06/13 01:09:45;;;;;;;2.80;2.60;;;22.90;59.40;;;;;;4991805;28;20030;-63
2023/06/13 01:12:25;;;;;;;3.80;2.80;;;23.00;59.40;;;;;;4990722;28;20034;-63
2023/06/13 01:15:04;;;;;;;3.28;2.40;;;22.90;59.40;;;;;;4993640;28;20455;-66
2023/06/13 01:17:40;;;;;;;2.88;2.65;;;22.90;59.40;;;;;;4999927;28;20064;-64
2023/06/13 01:20:13;;;;;;;2.80;2.60;;;22.90;59.30;;;;;;4998516;28;20560;-63
2023/06/13 01:23:03;;;;;;;3.10;2.90;;;22.90;59.40;;;;;;4997006;28;20710;-63
2023/06/13 01:25:52;;;;;;;3.05;2.75;;;22.90;59.40;;;;;;4994363;28;20034;-64
2023/06/13 01:28:20;;;;;;;4.00;2.40;;;22.90;59.40;;;;;;4995519;28;20034;-63
2023/06/13 01:30:47;;;;;;;2.63;2.42;;;22.90;59.40;;;;;;4995481;28;20525;-67
2023/06/13 01:33:14;;;;;;;3.15;2.60;;;22.90;59.40;;;;;;4995821;28;20737;-67
2023/06/13 01:35:40;;;;;;;3.47;3.00;;;22.90;59.30;;;;;;4991660;28;20034;-67
2023/06/13 01:38:06;;;;;;;2.40;2.20;;;22.90;59.40;;;;;;4994215;28;20027;-65
2023/06/13 01:40:31;;;;;;;3.65;2.33;;;22.90;59.40;;;;;;4999183;28;20114;-62
2023/06/13 01:42:57;;;;;;;2.72;2.50;;;22.90;59.50;;;;;;4996773;28;20026;-63
2023/06/13 01:45:23;;;;;;;2.47;2.28;;;22.90;59.30;;;;;;4999016;28;20034;-66
2023/06/13 01:47:54;;;;;;;2.70;2.50;;;22.90;59.40;;;;;;4998467;28;20429;-66
2023/06/13 01:50:49;;;;;;;3.17;2.80;;;22.90;59.40;;;;;;4996753;28;20149;-67
2023/06/13 01:53:19;;;;;;;4.70;3.08;;;22.90;59.40;;;;;;4994697;28;20038;-65
2023/06/13 01:55:51;;;;;;;3.17;2.88;;;22.90;59.30;;;;;;4991938;28;20054;-63
2023/06/13 01:58:20;;;;;;;3.28;2.92;;;22.90;59.30;;;;;;4993136;28;20030;-62
2023/06/13 02:00:47;;;;;;;3.15;2.53;;;22.90;59.40;;;;;;4993722;28;20060;-64
2023/06/13 02:03:13;;;;;;;2.92;2.50;;;22.80;59.40;;;;;;4991067;28;20134;-63
2023/06/13 02:05:38;;;;;;;3.92;2.65;;;22.80;59.30;;;;;;4996718;28;20034;-65
2023/06/13 02:08:04;;;;;;;3.58;3.00;;;22.90;59.40;;;;;;4994640;28;20027;-63
2023/06/13 02:10:29;;;;;;;4.20;2.72;;;22.90;59.40;;;;;;4994692;28;20689;-68
2023/06/13 02:12:55;;;;;;;3.25;2.95;;;22.90;59.40;;;;;;4997955;28;20076;-63
2023/06/13 02:15:21;;;;;;;3.05;2.75;;;22.80;59.30;;;;;;5004083;28;20668;-66
2023/06/13 02:17:47;;;;;;;2.83;2.63;;;22.80;59.30;;;;;;5003152;28;20318;-68
2023/06/13 02:20:13;;;;;;;3.55;2.92;;;22.80;59.30;;;;;;4999265;28;20786;-63
2023/06/13 02:22:38;;;;;;;2.85;2.40;;;22.80;59.30;;;;;;5000723;28;20045;-68
2023/06/13 02:25:04;;;;;;;2.80;2.60;;;22.80;59.40;;;;;;4995984;28;20161;-63
2023/06/13 02:27:30;;;;;;;3.00;2.70;;;22.80;59.40;;;;;;4993469;28;20035;-67
2023/06/13 02:29:56;;;;;;;2.90;2.60;;;22.80;59.30;;;;;;4996426;28;20037;-63
2023/06/13 02:32:23;;;;;;;3.85;2.70;;;22.80;59.30;;;;;;4992859;28;20448;-67
2023/06/13 02:34:49;;;;;;;2.92;2.70;;;22.80;59.40;;;;;;4999759;28;20033;-66
2023/06/13 02:37:15;;;;;;;3.08;2.88;;;22.80;59.40;;;;;;5001512;28;20026;-67
2023/06/13 02:39:40;;;;;;;4.05;2.80;;;22.80;59.30;;;;;;4995538;28;20041;-67
2023/06/13 02:42:06;;;;;;;3.10;2.80;;;22.80;59.30;;;;;;5002666;28;20030;-65
2023/06/13 02:44:32;;;;;;;2.63;2.42;;;22.80;59.40;;;;;;5001082;28;20053;-66
2023/06/13 02:46:57;;;;;;;4.47;3.47;;;22.70;59.30;;;;;;4997930;28;20036;-63
2023/06/13 02:49:22;;;;;;;3.40;2.80;;;22.70;59.40;;;;;;4998280;28;20108;-67
2023/06/13 02:51:48;;;;;;;3.85;3.33;;;22.80;59.30;;;;;;4996180;28;20053;-65
2023/06/13 02:54:13;;;;;;;3.17;2.80;;;22.80;59.50;;;;;;4996979;28;20026;-67
2023/06/13 02:56:39;;;;;;;2.83;2.45;;;22.80;59.30;;;;;;4997129;28;20099;-64
2023/06/13 02:59:05;;;;;;;2.83;2.53;;;22.70;59.30;;;;;;5000173;28;20030;-63
2023/06/13 03:01:30;;;;;;;3.40;2.60;;;22.70;59.30;;;;;;4993162;28;20038;-66
2023/06/13 03:03:56;;;;;;;4.07;2.75;;;22.70;59.30;;;;;;4996471;28;20084;-67
2023/06/13 03:06:24;;;;;;;3.70;3.10;;;22.70;59.30;;;;;;4996308;28;20029;-63
2023/06/13 03:08:52;;;;;;;2.85;2.65;;;22.70;59.40;;;;;;4999480;28;20549;-67
2023/06/13 03:11:18;;;;;;;4.35;2.80;;;22.70;59.40;;;;;;5000284;28;20041;-65
2023/06/13 03:13:43;;;;;;;3.40;3.00;;;22.70;59.30;;;;;;5001496;28;20043;-65
2023/06/13 03:16:09;;;;;;;2.92;2.63;;;22.70;59.30;;;;;;4998614;28;20505;-68
2023/06/13 03:18:35;;;;;;;2.80;2.60;;;22.70;59.30;;;;;;4999422;28;20042;-67
2023/06/13 03:21:01;;;;;;;2.78;2.53;;;22.70;59.30;;;;;;4996102;28;20113;-67
2023/06/13 03:23:26;;;;;;;3.60;2.75;;;22.70;59.40;;;;;;4995089;28;20160;-67
2023/06/13 03:25:52;;;;;;;3.95;3.10;;;22.70;59.20;;;;;;4998224;28;20464;-67
2023/06/13 03:28:17;;;;;;;3.63;2.70;;;22.70;59.20;;;;;;4992228;28;20042;-65
2023/06/13 03:30:43;;;;;;;3.28;2.92;;;22.70;59.20;;;;;;5002032;28;20022;-64
2023/06/13 03:33:09;;;;;;;2.95;2.70;;;22.70;59.30;;;;;;5005031;28;20034;-67
2023/06/13 03:35:35;;;;;;;4.13;2.63;;;22.70;59.20;;;;;;5006946;28;20042;-67
2023/06/13 03:38:00;;;;;;;3.10;2.47;;;22.70;59.20;;;;;;5002565;28;20636;-63
2023/06/13 03:40:26;;;;;;;3.75;2.88;;;22.70;59.20;;;;;;5014436;28;20149;-66
2023/06/13 03:42:51;;;;;;;3.40;2.60;;;22.70;59.20;;;;;;5000561;28;20080;-66
2023/06/13 03:45:17;;;;;;;3.00;2.70;;;22.60;59.00;;;;;;4999212;28;20085;-65
2023/06/13 03:47:42;;;;;;;3.55;3.25;;;22.70;59.20;;;;;;4996724;28;20469;-67
2023/06/13 03:50:08;;;;;;;4.22;3.00;;;22.70;59.20;;;;;;4997627;28;20034;-67
2023/06/13 03:52:33;;;;;;;3.15;2.67;;;22.70;59.20;;;;;;4995699;28;20052;-64
2023/06/13 03:54:59;;;;;;;2.60;2.40;;;22.70;59.20;;;;;;4996317;28;20481;-68
2023/06/13 03:57:25;;;;;;;2.83;2.53;;;22.70;59.10;;;;;;4989065;28;20066;-67
2023/06/13 03:59:51;;;;;;;3.08;2.45;;;22.70;59.10;;;;;;4994923;28;20112;-66
2023/06/13 04:02:19;;;;;;;3.28;2.97;;;22.70;59.10;;;;;;4990516;28;20027;-66
2023/06/13 04:04:46;;;;;;;4.05;2.83;;;22.70;59.10;;;;;;5000064;28;20575;-63
2023/06/13 04:07:11;;;;;;;3.40;2.60;;;22.70;59.10;;;;;;5000619;28;20068;-68
2023/06/13 04:09:37;;;;;;;2.88;2.67;;;22.60;59.10;;;;;;4999753;28;20493;-67
2023/06/13 04:12:02;;;;;;;2.72;2.53;;;22.70;59.00;;;;;;5000884;28;20030;-63
2023/06/13 04:14:28;;;;;;;2.67;2.42;;;22.70;59.10;;;;;;4996021;28;20042;-63
2023/06/13 04:16:54;;;;;;;5.78;3.15;;;22.60;59.10;;;;;;4997217;28;20041;-65
2023/06/13 04:19:20;;;;;;;3.65;2.70;;;22.70;59.10;;;;;;4997185;28;20034;-67
2023/06/13 04:21:46;;;;;;;3.13;2.85;;;22.60;59.00;;;;;;4995921;28;20037;-66
2023/06/13 04:24:16;;;;;;;3.05;2.78;;;22.70;59.00;;;;;;4994355;28;20038;-63
2023/06/13 04:26:45;;;;;;;3.20;2.75;;;22.60;59.10;;;;;;4994646;28;20030;-67
2023/06/13 04:29:13;;;;;;;4.95;2.85;;;22.70;59.10;;;;;;5000283;28;20030;-68
2023/06/13 04:31:41;;;;;;;2.83;2.63;;;22.60;59.10;;;;;;4995830;28;20508;-64
2023/06/13 04:34:10;;;;;;;4.45;2.50;;;22.60;59.10;;;;;;4997964;28;20092;-67
2023/06/13 04:36:38;;;;;;;2.55;2.35;;;22.60;59.10;;;;;;4999376;28;20630;-61
2023/06/13 04:39:04;;;;;;;3.28;2.97;;;22.60;58.90;;;;;;4996667;28;20520;-66
2023/06/13 04:41:34;;;;;;;2.97;2.78;;;22.70;59.00;;;;;;4994035;28;20046;-65
2023/06/13 04:44:09;;;;;;;3.03;2.70;;;22.70;59.00;;;;;;4997916;28;25431;-65
2023/06/13 04:46:35;;;;;;;3.28;2.78;;;22.70;58.80;;;;;;4998068;28;20573;-67
2023/06/13 04:49:04;;;;;;;2.85;2.65;;;22.70;58.70;;;;;;4995489;28;20041;-66
2023/06/13 04:51:32;;;;;;;4.03;2.90;;;22.70;58.70;;;;;;4998409;28;20030;-64
2023/06/13 04:53:58;;;;;;;2.85;2.65;;;22.80;58.80;;;;;;4992657;28;20050;-58
2023/06/13 04:56:25;;;;;;;2.97;2.78;;;22.80;58.60;;;;;;4995044;28;20408;-67
2023/06/13 04:58:52;;;;;;;2.67;2.47;;;22.80;58.80;;;;;;4995859;28;20030;-66
2023/06/13 05:01:19;;;;;;;3.03;2.58;;;22.80;59.00;;;;;;4991932;28;20193;-66
2023/06/13 05:03:45;;;;;;;4.05;2.70;;;22.80;58.90;;;;;;4996933;28;20038;-67
2023/06/13 05:06:12;;;;;;;4.90;3.17;;;22.80;58.90;;;;;;5000920;28;20060;-67
2023/06/13 05:08:38;;;;;;;3.08;2.78;;;22.80;58.90;;;;;;4995865;28;20038;-65
2023/06/13 05:11:03;;;;;;;4.22;2.97;;;22.90;58.90;;;;;;4996799;28;20430;-67
2023/06/13 05:13:29;;;;;;;5.32;2.80;;;22.80;58.70;;;;;;4997773;28;20030;-65
2023/06/13 05:15:55;;;;;;;3.40;2.90;;;22.90;58.70;;;;;;5003862;28;20046;-63
2023/06/13 05:18:29;;;;;;;3.72;3.10;;;22.90;58.70;;;;;;4997401;28;20034;-67
2023/06/13 05:20:55;;;;;;;3.97;3.25;;;22.90;59.30;;;;;;4995740;28;20425;-64
2023/06/13 05:23:21;;;;;;;6.57;3.30;;;22.90;58.30;;;;;;4993350;28;20029;-64
2023/06/13 05:25:47;;;;;;;6.80;3.17;;;22.90;58.10;;;;;;5000240;28;20498;-64
2023/06/13 05:28:12;;;;;;;5.07;2.92;;;22.90;58.10;;;;;;5001641;28;20073;-64
2023/06/13 05:30:38;;;;;;;5.05;3.30;;;22.90;58.60;;;;;;4996718;28;20064;-62
2023/06/13 05:33:03;;;;;;;5.45;3.20;;;22.90;58.20;;;;;;5000735;28;20113;-62
2023/06/13 05:35:29;;;;;;;6.50;3.47;;;22.90;58.30;;;;;;4999087;28;20024;-65
2023/06/13 05:37:54;;;;;;;3.92;3.22;;;22.90;58.20;;;;;;4997154;28;20030;-65
2023/06/13 05:40:20;;;;;;;9.20;2.85;;;22.90;58.40;;;;;;4997239;28;20031;-66
2023/06/13 05:42:46;;;;;;;6.35;3.70;;;22.90;58.00;;;;;;4997885;28;20034;-66
2023/06/13 05:45:11;;;;;;;6.30;3.25;;;22.90;58.20;;;;;;4997991;28;20060;-67
2023/06/13 05:47:37;;;;;;;6.93;3.53;;;22.90;58.10;;;;;;4995574;28;20444;-63
2023/06/13 05:50:03;;;;;;;5.28;3.65;;;22.90;58.30;;;;;;4994161;28;20035;-59
2023/06/13 05:52:29;;;;;;;5.03;3.40;;;22.90;58.30;;;;;;4998824;28;20038;-67
2023/06/13 05:54:54;;;;;;;3.67;3.38;;;22.90;58.20;;;;;;4998769;28;20029;-64
2023/06/13 05:57:20;;;;;;;4.35;3.55;;;22.90;58.20;;;;;;4999808;28;20030;-61
2023/06/13 05:59:45;;;;;;;4.10;3.47;;;22.90;58.40;;;;;;5001130;28;20421;-66
2023/06/13 06:02:11;;;;;;;4.13;3.25;;;22.90;58.30;;;;;;5002958;28;20087;-65
2023/06/13 06:04:37;;;;;;;4.65;3.05;;;22.90;58.60;;;;;;5000983;28;20033;-62
2023/06/13 06:07:03;;;;;;;4.80;3.65;;;22.90;58.60;;;;;;5000054;28;20030;-62
2023/06/13 06:09:29;;;;;;;5.25;3.63;;;22.90;58.50;;;;;;5001836;28;20600;-62
2023/06/13 06:11:54;;;;;;;4.82;3.70;;;22.90;58.60;;;;;;5001660;28;20117;-64
2023/06/13 06:14:21;;;;;;;4.32;3.83;;;22.90;59.10;;;;;;4999390;28;20536;-66
2023/06/13 06:16:46;;;;;;;5.70;3.97;;;22.90;59.30;;;;;;5000279;28;20029;-68
2023/06/13 06:19:12;;;;;;;4.95;4.40;;;22.90;59.40;;;;;;4997701;28;20034;-66
2023/06/13 06:21:37;;;;;;;7.65;4.47;;;22.90;60.00;;;;;;4997412;28;20060;-66
2023/06/13 06:24:03;;;;;;;7.55;4.97;;;22.80;59.90;;;;;;5001320;28;20427;-65
2023/06/13 06:26:29;;;;;;;4.75;4.30;;;22.80;60.00;;;;;;4997609;28;20083;-66
2023/06/13 06:28:55;;;;;;;4.60;4.20;;;22.90;59.80;;;;;;4998602;28;20033;-66
2023/06/13 06:31:21;;;;;;;5.28;4.38;;;22.80;60.00;;;;;;5002766;28;20528;-67
2023/06/13 06:33:46;;;;;;;8.90;4.80;;;22.80;59.70;;;;;;4998446;28;20022;-69
2023/06/13 06:36:12;;;;;;;6.82;4.07;;;22.90;59.80;;;;;;5008485;28;20505;-68
2023/06/13 06:38:40;;;;;;;6.20;4.20;;;22.90;59.80;;;;;;5002385;28;20022;-67
2023/06/13 06:41:06;;;;;;;7.28;4.38;;;22.80;59.70;;;;;;4999581;28;20038;-68
2023/06/13 06:43:31;;;;;;;6.55;4.85;;;22.80;59.90;;;;;;4999438;28;20045;-68
2023/06/13 06:45:57;;;;;;;6.70;3.67;;;22.80;59.80;;;;;;4999240;28;20034;-68
2023/06/13 06:48:22;;;;;;;6.95;4.18;;;22.80;59.80;;;;;;4994051;28;20701;-68
2023/06/13 06:50:48;;;;;;;5.55;3.38;;;22.80;59.90;;;;;;4993017;28;20109;-68
2023/06/13 06:53:13;;;;;;;7.20;4.15;;;22.80;59.30;;;;;;4997824;28;20089;-68
2023/06/13 06:55:39;;;;;;;6.95;3.80;;;22.80;59.30;;;;;;5002701;28;20061;-68
2023/06/13 06:58:04;;;;;;;6.63;4.47;;;22.80;59.30;;;;;;5002027;28;20517;-68
2023/06/13 07:00:30;;;;;;;6.55;4.15;;;22.80;59.10;;;;;;5002123;28;20041;-67
2023/06/13 07:02:55;;;;;;;5.68;4.07;;;22.80;59.10;;;;;;5001980;28;20023;-67
2023/06/13 07:05:21;;;;;;;6.65;3.90;;;22.80;59.10;;;;;;5000666;28;20444;-67
2023/06/13 07:07:46;;;;;;;6.30;3.90;;;22.80;59.10;;;;;;5001578;28;20037;-67
2023/06/13 07:10:12;;;;;;;8.30;4.65;;;22.80;59.20;;;;;;5002254;28;20022;-65
2023/06/13 07:12:39;;;;;;;7.43;5.03;;;22.80;59.20;;;;;;5000060;28;20038;-67
2023/06/13 07:15:05;;;;;;;10.40;4.55;;;22.80;59.10;;;;;;5000107;28;20049;-68
2023/06/13 07:17:30;;;;;;;7.55;3.90;;;22.70;58.90;;;;;;5000317;28;20034;-68
2023/06/13 07:19:56;;;;;;;5.45;4.18;;;22.70;58.90;;;;;;4994937;28;20536;-66
2023/06/13 07:22:22;;;;;;;5.82;3.45;;;22.70;59.10;;;;;;5002006;28;20467;-67
2023/06/13 07:24:47;;;;;;;6.40;3.85;;;22.70;58.90;;;;;;4999841;28;20042;-67
2023/06/13 07:27:13;;;;;;;6.88;4.05;;;22.70;59.10;;;;;;4997379;28;20033;-66
2023/06/13 07:29:40;;;;;;;6.40;4.15;;;22.70;59.00;;;;;;5001697;28;20042;-67
2023/06/13 07:32:06;;;;;;;7.38;4.32;;;22.70;59.00;;;;;;5001504;28;20026;-68
2023/06/13 07:34:31;;;;;;;7.00;4.43;;;22.70;59.10;;;;;;4999689;28;20045;-68
2023/06/13 07:36:57;;;;;;;6.38;3.88;;;22.70;59.30;;;;;;5000223;28;20075;-68
2023/06/13 07:39:23;;;;;;;9.85;4.35;;;22.70;59.30;;;;;;4999850;28;20033;-68
2023/06/13 07:41:49;;;;;;;9.40;4.18;;;22.70;59.20;;;;;;4997947;28;20037;-68
2023/06/13 07:44:15;;;;;;;10.05;4.07;;;22.70;59.20;;;;;;4998926;28;20038;-69
2023/06/13 07:46:41;;;;;;;6.40;3.75;;;22.70;58.90;;;;;;4996445;28;20034;-66
2023/06/13 07:49:06;;;;;;;5.38;3.85;;;22.70;59.40;;;;;;4990663;28;20079;-68
2023/06/13 07:51:32;;;;;;;6.45;3.50;;;22.70;59.40;;;;;;4997736;28;20128;-67
2023/06/13 07:53:58;;;;;;;6.93;3.88;;;22.70;59.10;;;;;;4996634;28;20121;-67
2023/06/13 07:56:23;;;;;;;8.27;4.57;;;22.70;58.80;;;;;;4996869;28;20061;-69
2023/06/13 07:58:49;;;;;;;8.07;4.10;;;22.70;58.50;;;;;;5000008;28;20516;-65
2023/06/13 08:01:15;;;;;;;6.55;4.43;;;22.70;58.20;;;;;;4999471;28;20481;-68
2023/06/13 08:03:41;;;;;;;9.18;4.95;;;22.70;58.10;;;;;;5000635;28;20048;-65
2023/06/13 08:06:07;;;;;;;8.98;4.35;;;22.70;58.40;;;;;;5002891;28;20025;-67
2023/06/13 08:08:32;;;;;;;8.25;4.43;;;22.60;58.50;;;;;;4999499;28;20026;-66
2023/06/13 08:10:58;;;;;;;11.43;4.40;;;22.60;58.60;;;;;;5000090;28;20717;-64
2023/06/13 08:13:23;;;;;;;5.10;4.60;;;22.60;58.20;;;;;;4999998;28;20037;-68
2023/06/13 08:15:49;;;;;;;5.90;3.60;;;22.60;58.50;;;;;;4992704;28;20030;-68
2023/06/13 08:18:15;;;;;;;7.65;4.43;;;22.60;58.50;;;;;;4994544;28;20496;-64
2023/06/13 08:20:41;;;;;;;7.25;3.90;;;22.60;58.30;;;;;;4995851;28;20030;-68
2023/06/13 08:23:06;;;;;;;6.90;4.68;;;22.60;57.60;;;;;;4991427;28;20484;-67
2023/06/13 08:25:32;;;;;;;7.10;4.13;;;22.60;57.10;;;;;;4993860;28;20042;-64
2023/06/13 08:27:58;;;;;;;5.60;4.13;;;22.60;56.80;;;;;;4999116;28;20058;-64
2023/06/13 08:30:23;;;;;;;7.28;4.10;;;22.60;56.80;;;;;;4997512;28;20058;-67
2023/06/13 08:32:52;;;;;;;8.23;4.05;;;22.60;56.80;;;;;;4996256;28;20034;-68
2023/06/13 08:35:20;;;;;;;4.57;3.80;;;22.60;56.90;;;;;;4997581;28;20034;-63
2023/06/13 08:37:46;;;;;;;8.38;4.07;;;22.60;57.10;;;;;;4997470;28;20121;-66
2023/06/13 08:40:12;;;;;;;5.40;3.67;;;22.60;57.20;;;;;;4998388;28;20030;-67
2023/06/13 08:42:39;;;;;;;3.92;3.53;;;22.60;57.20;;;;;;4997138;28;20053;-64
2023/06/13 08:45:07;;;;;;;4.68;3.45;;;22.60;57.30;;;;;;4994179;28;20374;-68
2023/06/13 08:47:33;;;;;;;6.05;3.70;;;22.60;57.30;;;;;;4993139;28;20045;-65
2023/06/13 08:50:00;;;;;;;5.63;3.65;;;22.60;57.40;;;;;;5000016;28;20026;-68
2023/06/13 08:52:29;;;;;;;4.07;3.63;;;22.60;57.60;;;;;;4993105;28;20417;-68
2023/06/13 08:54:58;;;;;;;3.72;3.33;;;22.60;57.50;;;;;;4996751;28;20257;-67
2023/06/13 08:57:27;;;;;;;6.07;3.63;;;22.60;57.60;;;;;;4999280;28;20129;-66
2023/06/13 08:59:53;;;;;;;5.07;3.88;;;22.60;57.60;;;;;;4998322;28;20041;-69
2023/06/13 09:02:24;;;;;;;5.50;3.47;;;22.60;57.70;;;;;;4997934;28;20038;-66
2023/06/13 09:04:51;;;;;;;4.18;3.50;;;22.50;57.70;;;;;;4997319;28;20054;-68
2023/06/13 09:07:18;;;;;;;4.68;3.83;;;22.60;57.80;;;;;;4997725;28;20089;-64
2023/06/13 09:09:45;;;;;;;4.22;3.83;;;22.60;57.90;;;;;;4996451;28;20124;-65
2023/06/13 09:12:13;;;;;;;3.63;2.90;;;22.60;57.70;;;;;;4996972;28;20529;-68
2023/06/13 09:14:39;;;;;;;4.00;3.40;;;22.60;58.00;;;;;;4992656;28;20029;-66
2023/06/13 09:17:05;;;;;;;5.57;3.47;;;22.60;57.90;;;;;;4994157;28;20029;-67
2023/06/13 09:19:31;;;;;;;6.05;3.22;;;22.60;58.00;;;;;;4991603;28;20113;-67
2023/06/13 09:21:57;;;;;;;3.47;2.78;;;22.60;57.90;;;;;;4994629;28;20113;-62
2023/06/13 09:24:24;;;;;;;3.80;3.13;;;22.60;57.80;;;;;;4994270;28;20038;-64
2023/06/13 09:26:50;;;;;;;4.43;3.10;;;22.50;58.00;;;;;;4999462;28;20485;-65
2023/06/13 09:29:16;;;;;;;5.50;3.47;;;22.60;58.00;;;;;;5002516;28;20287;-67
2023/06/13 09:31:41;;;;;;;3.97;2.80;;;22.60;58.00;;;;;;5000174;28;20413;-68
2023/06/13 09:34:07;;;;;;;4.75;3.10;;;22.60;58.00;;;;;;5000545;28;20501;-65
2023/06/13 09:36:35;;;;;;;3.97;3.40;;;22.60;58.20;;;;;;5001195;28;20034;-64
2023/06/13 09:39:03;;;;;;;3.22;2.83;;;22.60;58.10;;;;;;5000962;28;20665;-67
2023/06/13 09:41:31;;;;;;;3.42;3.13;;;22.60;58.00;;;;;;4991272;28;20111;-65
2023/06/13 09:44:01;;;;;;;3.20;2.88;;;22.60;58.10;;;;;;4998565;28;20489;-65
2023/06/13 09:46:27;;;;;;;4.47;3.20;;;22.50;58.00;;;;;;4998828;28;20512;-67
2023/06/13 09:48:53;;;;;;;3.15;2.83;;;22.60;58.20;;;;;;4993770;28;20073;-63
2023/06/13 09:51:21;;;;;;;3.25;2.95;;;22.50;58.10;;;;;;4997649;28;20022;-67
2023/06/13 09:53:49;;;;;;;3.95;2.70;;;22.60;58.30;;;;;;4995107;28;20034;-64
2023/06/13 09:56:15;;;;;;;2.88;2.58;;;22.50;58.20;;;;;;5003950;28;20100;-64
2023/06/13 09:58:41;;;;;;;3.17;2.90;;;22.60;58.20;;;;;;5000753;28;20045;-67
2023/06/13 10:01:15;;;;;;;3.28;2.60;;;22.50;58.20;;;;;;5000946;28;20034;-68
2023/06/13 10:03:41;;;;;;;3.72;3.15;;;22.60;58.20;;;;;;4999717;28;20555;-68
2023/06/13 10:06:07;;;;;;;3.67;2.88;;;22.60;58.20;;;;;;5000424;28;20045;-63
2023/06/13 10:08:34;;;;;;;2.75;2.55;;;22.60;58.20;;;;;;4999622;28;20031;-64
2023/06/13 10:11:04;;;;;;;3.30;2.97;;;22.60;58.20;;;;;;4999151;28;20037;-68
2023/06/13 10:13:35;;;;;;;2.88;2.67;;;22.60;58.30;;;;;;4992973;28;20041;-64
2023/06/13 10:16:04;;;;;;;2.55;2.30;;;22.60;58.40;;;;;;5000530;28;20026;-70
2023/06/13 10:18:36;;;;;;;3.03;2.72;;;22.60;58.40;;;;;;4998610;28;20030;-65
2023/06/13 10:21:02;;;;;;;2.90;2.60;;;22.60;58.30;;;;;;5000375;28;20200;-71
2023/06/13 10:23:32;;;;;;;2.75;2.55;;;22.60;58.30;;;;;;5001145;28;20022;-65
2023/06/13 10:26:06;;;;;;;3.05;2.75;;;22.50;58.40;;;;;;5002591;28;20041;-69
2023/06/13 10:28:50;;;;;;;3.00;2.80;;;22.60;58.30;;;;;;5000489;28;20315;-68
2023/06/13 10:31:26;;;;;;;3.17;2.50;;;22.50;58.30;;;;;;5000490;28;20052;-64
2023/06/13 10:34:25;;;;;;;3.17;2.88;;;22.60;58.30;;;;;;5000794;28;20323;-65
2023/06/13 10:37:15;;;;;;;3.38;2.78;;;22.60;58.40;;;;;;4999129;28;20118;-64
2023/06/13 10:39:52;;;;;;;2.97;2.50;;;22.60;58.30;;;;;;4997903;28;20026;-68
2023/06/13 10:42:39;;;;;;;3.40;2.45;;;22.60;58.30;;;;;;4993315;28;20037;-67
2023/06/13 10:45:07;;;;;;;3.33;2.97;;;22.60;58.40;;;;;;4999282;28;20034;-63
2023/06/13 10:47:33;;;;;;;2.70;2.45;;;22.60;58.30;;;;;;4996093;28;20222;-67
2023/06/13 10:50:01;;;;;;;2.92;2.72;;;22.60;58.40;;;;;;4996078;28;20034;-67
2023/06/13 10:52:29;;;;;;;3.42;2.55;;;22.60;58.30;;;;;;4996825;28;20069;-67
2023/06/13 10:54:58;;;;;;;3.67;2.83;;;22.50;58.30;;;;;;5000815;28;20036;-62
2023/06/13 10:57:48;;;;;;;2.72;2.53;;;22.60;58.40;;;;;;4999837;28;20076;-66
2023/06/13 11:00:44;;;;;;;2.55;2.30;;;22.60;58.40;;;;;;4996905;28;20038;-64
2023/06/13 11:03:12;;;;;;;2.40;2.20;;;22.50;58.30;;;;;;4998672;28;20042;-67
2023/06/13 11:05:49;;;;;;;3.42;2.50;;;22.60;58.50;;;;;;5000194;28;20038;-68
2023/06/13 11:08:19;;;;;;;3.78;3.00;;;22.60;58.50;;;;;;4998738;28;20710;-65
2023/06/13 11:10:46;;;;;;;2.90;2.58;;;22.60;58.40;;;;;;4996406;28;20114;-68
2023/06/13 11:13:26;;;;;;;4.13;2.67;;;22.60;58.50;;;;;;4999878;28;20034;-68
2023/06/13 11:15:56;;;;;;;3.03;2.30;;;22.60;58.30;;;;;;5002043;28;20108;-69
2023/06/13 11:18:22;;;;;;;3.58;2.85;;;22.50;58.20;;;;;;4998222;28;20042;-70
2023/06/13 11:20:58;;;;;;;3.75;2.63;;;22.60;58.10;;;;;;4992465;28;20523;-69
2023/06/13 11:23:33;;;;;;;3.03;2.70;;;22.50;57.90;;;;;;5005852;28;20168;-67
2023/06/13 11:25:58;;;;;;;3.13;2.05;;;22.50;57.90;;;;;;5001736;28;20413;-69
2023/06/13 11:28:24;;;;;;;3.15;2.85;;;22.50;57.90;;;;;;4999856;28;20037;-69
2023/06/13 11:30:52;;;;;;;3.78;2.97;;;22.50;57.80;;;;;;4999079;28;20034;-69
2023/06/13 11:33:19;;;;;;;3.20;2.90;;;22.50;57.80;;;;;;4998161;28;20080;-69
2023/06/13 11:35:50;;;;;;;5.28;2.95;;;22.50;57.70;;;;;;4998519;28;20054;-70
2023/06/13 11:38:31;;;;;;;4.03;3.00;;;22.60;57.80;;;;;;4999954;28;20420;-69
2023/06/13 11:40:57;;;;;;;3.92;3.10;;;22.50;57.50;;;;;;4996399;28;20030;-68
2023/06/13 11:43:28;;;;;;;3.70;3.10;;;22.50;58.00;;;;;;4994891;28;20033;-70
2023/06/13 11:46:02;;;;;;;2.90;2.65;;;22.50;57.40;;;;;;4994158;28;20030;-69
2023/06/13 11:48:28;;;;;;;4.22;3.40;;;22.50;57.40;;;;;;4995200;28;20121;-68
2023/06/13 11:51:09;;;;;;;2.67;2.47;;;22.50;57.40;;;;;;4991005;28;20121;-69
2023/06/13 11:53:48;;;;;;;5.22;3.15;;;22.50;57.40;;;;;;4999791;28;20096;-69
2023/06/13 11:56:15;;;;;;;7.18;2.88;;;22.50;57.40;;;;;;4999645;28;20413;-69
2023/06/13 11:58:40;;;;;;;5.65;3.28;;;22.50;57.40;;;;;;5001735;28;20026;-69
2023/06/13 12:01:06;;;;;;;4.43;2.72;;;22.50;57.20;;;;;;5010677;28;20233;-69
2023/06/13 12:03:38;;;;;;;3.45;2.58;;;22.50;57.30;;;;;;5021982;28;20025;-71
2023/06/13 12:06:06;;;;;;;4.25;3.10;;;22.50;57.30;;;;;;5024721;28;20398;-71
2023/06/13 12:08:34;;;;;;;4.63;3.38;;;22.50;57.20;;;;;;5021737;28;20094;-69
2023/06/13 12:11:03;;;;;;;8.27;3.28;;;22.50;57.10;;;;;;5021238;28;20034;-71
2023/06/13 12:13:28;;;;;;;3.72;3.15;;;22.50;57.20;;;;;;5020647;28;20034;-68
2023/06/13 12:15:54;;;;;;;3.97;3.30;;;22.50;57.10;;;;;;5022863;28;20085;-70
2023/06/13 12:18:19;;;;;;;3.45;3.13;;;22.50;57.20;;;;;;5022415;28;20032;-70
2023/06/13 12:20:51;;;;;;;4.10;3.17;;;22.50;57.00;;;;;;5019786;28;20033;-70
2023/06/13 12:23:17;;;;;;;4.30;3.40;;;22.50;57.20;;;;;;5006082;28;20714;-69
2023/06/13 12:25:43;;;;;;;3.65;3.35;;;22.50;57.00;;;;;;4999647;28;20081;-67
2023/06/13 12:28:12;;;;;;;3.60;3.30;;;22.50;57.00;;;;;;5000433;28;20068;-69
2023/06/13 12:30:41;;;;;;;5.43;3.25;;;22.50;57.10;;;;;;4996645;28;20036;-69
2023/06/13 12:33:14;;;;;;;4.93;3.33;;;22.50;57.00;;;;;;4998434;28;20035;-68
2023/06/13 12:35:52;;;;;;;6.45;3.55;;;22.50;57.10;;;;;;4998120;28;20030;-67
2023/06/13 12:38:19;;;;;;;4.97;3.40;;;22.50;57.20;;;;;;4997282;28;20038;-69
2023/06/13 12:40:51;;;;;;;4.60;3.60;;;22.50;57.40;;;;;;4990889;28;20109;-68
2023/06/13 12:43:22;;;;;;;4.93;3.42;;;22.50;57.60;;;;;;4999896;28;20378;-68
2023/06/13 12:45:47;;;;;;;5.45;3.35;;;22.50;57.80;;;;;;4997452;28;20108;-69
2023/06/13 12:48:17;;;;;;;3.50;3.20;;;22.50;57.90;;;;;;4998387;28;20026;-69